Etusivu
METAR-TAF:

METAR-TAF

Lentoasemat :

Camp Mabry

Austin, Texas, Yhdysvallat

Leveyspiiri: 30-19N, Pituuspiiri: 097-46W, korkeus merenpinnasta: 200 m

Tämänhetkinen sää

Tämä raportti tehtiin 25 minuuttia sitten, kello 09.51 UTC
tyyntä
Lämpötila 11°C
Kosteus 82%
Ilmanpaine 1007 hPa
Näkyvyys: 11.3 km
selkeää

METAR: KATT 150951Z AUTO 00000KT 7SM CLR 11/08 A2975 RMK AO2 SLP069 T01060083

Aika: 04:16 (10:16 UTC)


TAF: puuttuu

Säähavainnot ja -ennusteet yli 4000 lentoasemalta (METAR- ja TAF-raportit).

Käytössä olevat sääasemat on merkitty karttaan keltaisilla ja punaisilla pisteillä.

Aseta hiiri pisteen päälle nähdäksesi sääaseman nimen.

Klikkaa sitten nähdäksesi säähavainnot ja -ennusteet.

Kartan vaihtaminen: klikkaa mustalla rastilla varustettuja vihreitä pisteitä, niin voit zoomata sisään; viivalla varustettua vihreää pistettä, niin voit zoomata ulos tai vihreitä nuolia, niin pääset viereisille kartoille.


METAR-TAF: